D'Hanis, Texas
Current Conditions -  °F | °C
As of 11:19 AM on Thursday 30 Oct 2014 (Local Time) from KHDO Reporting Station
Overcast Overcast  
Wind Chill: 68°   Ceiling: 800
Heat Index: 68°   Visibility: 8mi
Dew Point: 65°   Wind: 7mph
Humidity: 90%   Direction: 110°ESE
Pressure: 30.17"   Gusts: NA
Location:  29.33°N, 99.28°W
Report Text: KHDO 301619Z AUTO 11006KT 8SM OVC008 20/18 A3017 RMK AO2 CIG 006V012 T02000183
Loading
Personal Weather Stations






























Interactive Weather Map
Tropical Storm Tracking
New forecast layout! Learn more

10-Day Weather Forecast

Advertisements
Track Severe Weather on mobile